Forum - i mitici sud

tutti gli utenti del gruppo possono partecipare le discussione con riferimento a sesso o non conforme a chatta.it verranno imossi

Amministratore
F.ranco52 28/04/2020 ore 09:24 Quota

(nessuno) Nowcasting Martedì 28 Aprile 2020

Buongiorno a tutti


Notizie Meteo dell'Italia da il Meteo .It


http://ilMeteo.It


la Situazione Italiana vista dal Sat









il Radar Europeo









Brindisi

METAR: LIBR 280620Z 19005KT CAVOK 17/14 Q101

METAR di Brindisi del 28 alle 6,20z

Vento da 190° S SW 5 nodi (9,26 km) Visibilità 10000 m
Base delle Nubi e Visibilità OK
Temp 17°C Dew 14°C Ur 82% hPa 1001

Brindisi

TAF: LIBR 280617Z 2806/2906 17010KT CAVOK

le TAF di Brindisi delle 6,17 , Previsioni dalle 6z alle 6z del 29

Vento da 170° S SE 10 nodi (18,52 km) Visibilità 10000 m
Base delle Nubi e Visibilità OK


Gioia del Colle

METAR: LIBV 280555Z 26001KT CAVOK 13/09 Q1013 RMK SCT SCT200 VIS MIN 9999 WIND THR32 27001KT WIND THR14 24001KT BLU

METAR di Gioia del Colle del 28 alle 5,55z

Vento da 260° W SW 1 nodo (1,852 km) Visibilità 10000 m ù
Base delle Nubi e Visibilità OK
Temp 13°C Dew 9°C Ur 36% hPa 1013
Aumento della Nuvolosità a 3-4 ottavi
Copertura 3-4 ottavi da 20000 piedi (6096 m)
Visibilità Minima 10000 m

Gioia del Colle

TAF: LIBV 280500Z 2806/2815 24006KT 9999 FEW040 TEMPO 2809/2812 FEW015TCU

le TAF di Gioia del Colle delle 5z Previsioni dalle 6z alle 15z

Vento da 240° W SW 6 nodi (11,112 km) Visibilità 10000 m
Copertura 1-2 ottavi da 4000 piedi (1219,2 m)
il Tempo Varierà dalle 9z alle 12z
Copertura 1.2 ottavi da 1500 piedi (257,2 m ) Cumoli Torreggianti
2671272
Buongiorno a tutti Notizie Meteo dell'Italia da il Meteo .It http://ilMeteo.It la Situazione Italiana vista dal Sat « immagine »...
Discussione
28/04/2020 09:24:38
none
  • mi piace
    iLikeIt
    PublicVote

Vuoi partecipare anche tu a questa discussione?

Rispondi per lasciare il tuo messaggio in questa discussione